AirNav   Bose ProFlight Series 2 Headset
 
 1059 users online  

KNFE Fentress Naval Auxiliary Field
Fentress, Virginia, USA

GOING TO FENTRESS?


FAA INFORMATION EFFECTIVE 02 JANUARY 2020

Location

FAA Identifier: NFE
Lat/Long: 36-41-31.3310N 076-08-04.4305W
36-41.522183N 076-08.073842W
36.6920364,-76.1345640
(estimated)
Elevation: 16 ft. / 5 m (estimated)
Variation: 09W (1985)
Time zone: UTC -5 (UTC -4 during Daylight Saving Time)
Zip code: 23322

Airport Operations

Airport use: Private use. Permission required prior to landing
Activation date: 08/1943
Control tower: no
ARTCC: WASHINGTON CENTER
FSS: LEESBURG FLIGHT SERVICE STATION
Attendance: UNATNDD
Segmented circle: no
Lights: RY LGTS OPERATED BY CRASH CREW DURING SCHEDULED OPNS.

Airport Communications

OCEANA APPROACH: 123.9
OCEANA DEPARTURE: 123.9
WX AWOS-3 at CPK (9 nm W): 123.675 (757-204-4290)
WX ASOS at NTU (9 nm NE): PHONE DSN 433-3619 or 757-433-3619
WX ASOS at ORF (13 nm N): PHONE 757-460-9348
WX AWOS-3PT at PVG (16 nm W): 118.375 (757-465-2175)
WX AWOS-3 at ONX (18 nm S): 119.775 (252-453-8939)

Nearby radio navigation aids

VOR radial/distance  VOR name  Freq  Var
ORFr172/12.4NORFOLK VORTAC116.9007W
ECGr011/26.1ELIZABETH CITY VOR/DME112.5007W
CCVr199/39.9CAPE CHARLES VORTAC112.2010W

 
NDB name  Hdg/Dist  Freq  Var  ID
INGLE157/10.532909WOR --- .-.
WOODVILLE027/26.925410WLLW .-.. .-.. .--

Airport Services

Runway Information

Runway 5/23

Dimensions: 8004 x 175 ft. / 2440 x 53 m
Surface: asphalt
Weight bearing capacity: 
PCN 40 /R/C/W/T
Runway edge lights: low intensity
RUNWAY 5  RUNWAY 23
Latitude: 36-41.014033N36-42.030333N
Longitude: 076-08.595917W076-07.551767W
Elevation: 14.5 ft.14.2 ft.
Traffic pattern: leftleft
Runway heading: 049 magnetic, 040 true228 magnetic, 219 true
Touchdown point: yes, no lightsyes, no lights

Airport Ownership and Management from official FAA records

Ownership: U.S. Navy
Owner: US NAVY
OCEANOGRAPHIC OFC - CODE 3142
WASHINGTON, DC 20373

Additional Remarks

FOR CD CTC WASHINGTON ARTCC AT 703-771-3587.

Instrument Procedures

There are no published instrument procedures at KNFE.

Some nearby airports with instrument procedures:

KCPK - Chesapeake Regional Airport (9 nm W)
KNTU - Oceana Naval Air Station (Apollo Soucek Field) (9 nm NE)
KORF - Norfolk International Airport (13 nm N)
KPVG - Hampton Roads Executive Airport (16 nm W)
KNGU - Norfolk Naval Station (Chambers Field) (16 nm NW)
KONX - Currituck County Regional Airport (18 nm S)
 
Loc | Ops | Rwys | IFR | FBO | Links
Com | Nav | Svcs | Stats | Notes
Area around KNFE (Fentress Naval Auxiliary Field)
 
Road maps at: MapQuest Bing Google
 
Aerial photo
WARNING: Photo may not be current or correct
Aerial photo of KNFE (Fentress Naval Auxiliary Field)
Do you have a better or more recent aerial photo of Fentress Naval Auxiliary Field that you would like to share? If so, please send us your photo.

 
Sectional chart

 
Airport distance calculator
Flying to Fentress Naval Auxiliary Field? Find the distance to fly.

From to KNFE

Sunrise and sunset
Times for 17-Jan-2020
 Local
(UTC-5)
 Zulu
(UTC)
Morning civil twilight06:4811:48
Sunrise07:1712:17
Sunset17:1322:13
Evening civil twilight17:4122:41

Current date and time
Zulu (UTC)  17-Jan-2020 13:48:01
Local (UTC-5)  17-Jan-2020 08:48:01
 
METAR
KNFE 171256Z AUTO 33008G19KT 290V350 10SM CLR 03/M09 A3061 RMK AO2 SLP366 T00331094
KCPK 
9nm W 
171335Z AUTO 34012G20KT 10SM CLR 02/M10 A3063 RMK AO2 T00201102
KNTU 
9nm NE 
171256Z 34016G24KT 10SM BKN048 02/M08 A3059 RMK AO2 PK WND 33031/1202 SLP361 T00221078
KORF 
13nm N 
171251Z 34008G16KT 10SM CLR 03/M08 A3061 RMK AO2 SLP366 T00281078
KNGU 
15nm NW 
171259Z 34017G24KT 10SM FEW050 02/M08 A3063 RMK AO2 PK WND 33027/1244 SLP371 T00221078
KPVG 
16nm W 
171256Z AUTO 36008KT 300V040 10SM CLR 01/M09 A3063 RMK AO2 SLP373 T00111089 FZRANO PNO $
KONX 
18nm S 
171335Z AUTO 34014G19KT 10SM CLR 02/M06 A3061 RMK AO2 T00211060
TAF
KNTU 
9nm NE 
1707/1807 33020G30KT 9999 FEW050 QNH3042INS BECMG 1718/1720 36014G22KT 9999 FEW030 QNH3064INS BECMG 1723/1800 02005KT 9999 FEW250 QNH3070INS T06/1707Z TM04/1806Z FN00197
KORF 
13nm N 
171128Z 1712/1812 34015G26KT P6SM SCT060 FM171800 01012G19KT P6SM SKC FM172200 01007KT P6SM SKC FM180600 VRB03KT P6SM SCT200
KNGU 
15nm NW 
1707/1807 34020G30KT 9999 FEW030 QNH3044INS BECMG 1718/1720 36014G22KT 9999 FEW020 QNH3066INS BECMG 1723/1800 02005KT 9999 FEW020 FEW250 QNH3070INS T06/1707Z TM03/1806Z FN00197
NOTAMs
Click for the latest NOTAMs
NOTAMs are issued by the DoD/FAA and will open in a separate window not controlled by AirNav.

 

 
 

Would you like to see your business listed on this page?

 If your business provides an interesting product or service to pilots, flight crews, aircraft, or users of the Fentress Naval Auxiliary Field, you should consider listing it here.  To start the listing process, click on the button below
 
Add a business
 

Other Pages about Fentress Naval Auxiliary Field

Update a link
 
Copyright © AirNav, LLC. All rights reserved. Privacy Policy  Contact